Weather History for KPEZ - February, 2013

Change the Weather History Date:

Wednesday, February 20, 2013

  Actual Average Record
Temperature  
Mean Temperature 63 °F -  
Max Temperature 75 °F 72 °F 84 °F (2011)
Min Temperature 51 °F 49 °F 33 °F (2009)
Degree Days  
Heating Degree Days 2    
Growing Degree Days 13 (Base 50)    
Moisture  
Dew Point 56 °F    
Average Humidity 76    
Maximum Humidity 86    
Minimum Humidity 35    
Precipitation  
Precipitation 0.05 in - - ()
Sea Level Pressure  
Sea Level Pressure 29.86 in    
Wind  
Wind Speed 10 mph (East)    
Max Wind Speed 18 mph    
Max Gust Speed 30 mph    
Visibility 10 miles    
Events Rain    
Averages and records for this station are not official NWS values.
T = Trace of Precipitation, MM = Missing Value Source: NWS Daily Summary

Daily Weather History Graph

Daily Weather History Graph

Search for Another Location

Airport or City:

Trip Planner

Search our weather history database for the weather conditions in past years. The results will help you decide how hot, cold, wet, or windy it might be!

Date:

Astronomy

Feb. 20, 2013 Rise Set
Actual Time 7:07 AM CST 6:27 PM CST
Civil Twilight 6:43 AM CST 6:51 PM CST
Nautical Twilight 6:16 AM CST 7:19 PM CST
Astronomical Twilight 5:48 AM CST 7:47 PM CST
Moon 2:04 PM CST (2/20) 3:15 AM CST (2/20)
Length of Visible Light 12h 07m
Length of Day
11h 19m
Waxing Gibbous, 76% of the Moon is Illuminated
Feb 20
Waxing Gibbous
Feb 25
Full
Mar 4
Last Quarter
Mar 11
New
Mar 19
First Quarter

Hourly Weather History & Observations

Time (CST) Temp. Dew Point Humidity Pressure Visibility Wind Dir Wind Speed Gust Speed Precip Events Conditions
12:15 AM 58.1 °F 30.7 °F 35% 30.10 in 10.0 mi East 8.1 mph - N/A   Overcast
12:35 AM 57.9 °F 32.0 °F 37% 30.09 in 10.0 mi East 6.9 mph - N/A   Overcast
12:55 AM 57.6 °F 34.3 °F 42% 30.08 in 10.0 mi East 6.9 mph - N/A   Overcast
1:15 AM 57.2 °F 36.7 °F 46% 30.06 in 10.0 mi East 9.2 mph - N/A Rain Light Rain
1:35 AM 56.3 °F 40.1 °F 55% 30.06 in 10.0 mi East 5.8 mph - N/A Rain Light Rain
1:55 AM 56.3 °F 41.2 °F 57% 30.09 in 10.0 mi Calm Calm - N/A Rain Rain
2:15 AM 53.2 °F 45.1 °F 74% 30.06 in 10.0 mi NE 3.5 mph - 0.02 in Rain Rain
2:55 AM 51.8 °F 47.1 °F 84% 30.05 in 10.0 mi North 3.5 mph - 0.04 in Rain Light Rain
3:15 AM 51.8 °F 47.5 °F 85% 30.04 in 10.0 mi NNE 5.8 mph - N/A   Mostly Cloudy
3:35 AM 52.2 °F 48.0 °F 86% 30.03 in 10.0 mi NE 6.9 mph - N/A Rain Light Rain
3:55 AM 52.5 °F 48.2 °F 85% 30.01 in 10.0 mi NE 8.1 mph - N/A Rain Light Rain
4:15 AM 52.5 °F 48.6 °F 86% 29.97 in 10.0 mi ENE 10.4 mph - N/A   Scattered Clouds
4:35 AM 53.1 °F 48.9 °F 86% 30.00 in 10.0 mi NNE 6.9 mph - N/A   Mostly Cloudy
4:55 AM 53.2 °F 49.1 °F 86% 30.01 in 10.0 mi NNE 8.1 mph - N/A   Overcast
5:15 AM 53.2 °F 49.1 °F 86% 30.01 in 10.0 mi NNE 8.1 mph - N/A   Overcast
5:35 AM 53.1 °F 48.6 °F 85% 30.01 in 10.0 mi NNE 8.1 mph - N/A   Overcast
5:55 AM 53.2 °F 48.6 °F 84% 29.98 in 10.0 mi ENE 10.4 mph - N/A   Overcast
6:15 AM 53.8 °F 49.1 °F 84% 29.96 in 10.0 mi East 10.4 mph - N/A   Overcast
6:35 AM 54.9 °F 49.6 °F 83% 29.96 in 10.0 mi East 10.4 mph - N/A   Overcast
7:15 AM 56.3 °F 50.2 °F 80% 29.93 in 10.0 mi East 8.1 mph - N/A   Overcast
7:35 AM 57.9 °F 51.6 °F 80% 29.91 in 10.0 mi East 12.7 mph 23.0 mph N/A   Overcast
7:55 AM 59.0 °F 51.8 °F 77% 29.93 in 10.0 mi East 12.7 mph - N/A   Overcast
8:15 AM 59.9 °F 52.5 °F 77% 29.96 in 10.0 mi East 8.1 mph - N/A   Overcast
8:35 AM 60.8 °F 53.2 °F 76% 29.95 in 10.0 mi ESE 17.3 mph 20.7 mph N/A   Overcast
8:55 AM 61.2 °F 53.8 °F 77% 29.94 in 10.0 mi ESE 12.7 mph 21.9 mph N/A   Overcast
9:15 AM 61.3 °F 54.1 °F 77% 29.95 in 10.0 mi ESE 10.4 mph - N/A   Overcast
9:35 AM 61.3 °F 54.1 °F 77% 29.96 in 10.0 mi East 13.8 mph 18.4 mph N/A   Overcast
9:55 AM 61.9 °F 54.7 °F 77% 29.96 in 10.0 mi East 11.5 mph 17.3 mph N/A   Overcast
10:15 AM 61.7 °F 54.9 °F 78% 29.96 in 10.0 mi East 8.1 mph - N/A Rain Light Rain
10:35 AM 62.1 °F 55.4 °F 79% 29.97 in 10.0 mi ENE 4.6 mph - N/A   Overcast
10:55 AM 62.1 °F 55.6 °F 79% 29.97 in 10.0 mi ENE 8.1 mph - N/A Rain Light Rain
11:15 AM 61.0 °F 56.3 °F 85% 29.96 in 7.0 mi East 4.6 mph - 0.01 in Rain Light Rain
11:35 AM 61.3 °F 57.0 °F 86% 29.94 in 10.0 mi East 9.2 mph - 0.01 in   Overcast
11:55 AM 62.1 °F 57.2 °F 84% 29.92 in 7.0 mi East 10.4 mph 16.1 mph 0.01 in Rain Light Rain
12:15 PM 62.6 °F 58.1 °F 85% 29.90 in 10.0 mi East 11.5 mph 16.1 mph N/A   Overcast
12:35 PM 65.7 °F 59.0 °F 79% 29.88 in 7.0 mi East 11.5 mph 17.3 mph N/A   Overcast
12:55 PM 67.6 °F 59.7 °F 76% 29.86 in 10.0 mi East 12.7 mph 18.4 mph N/A   Overcast
1:15 PM 70.9 °F 61.3 °F 72% 29.85 in 10.0 mi East 10.4 mph 17.3 mph N/A   Overcast
1:35 PM 68.5 °F 60.1 °F 74% 29.83 in 10.0 mi East 11.5 mph 17.3 mph N/A   Overcast
2:15 PM 70.3 °F 61.9 °F 74% 29.79 in 10.0 mi East 11.5 mph 18.4 mph N/A   Overcast
2:35 PM 72.7 °F 63.7 °F 73% 29.77 in 7.0 mi SE 12.7 mph 20.7 mph N/A   Overcast
2:55 PM 73.9 °F 63.5 °F 70% 29.75 in 10.0 mi SE 16.1 mph 25.3 mph N/A   Overcast
3:15 PM 73.4 °F 63.5 °F 71% 29.75 in 7.0 mi ESE 15.0 mph 21.9 mph N/A   Overcast
3:35 PM 75.6 °F 63.7 °F 66% 29.74 in 10.0 mi ESE 15.0 mph 21.9 mph N/A   Overcast
3:55 PM 75.0 °F 63.7 °F 68% 29.73 in 10.0 mi SE 13.8 mph 21.9 mph N/A   Overcast
4:15 PM 75.2 °F 63.7 °F 67% 29.73 in 10.0 mi ESE 17.3 mph 24.2 mph N/A   Mostly Cloudy
4:35 PM 74.8 °F 63.9 °F 69% 29.73 in 7.0 mi ESE 15.0 mph 24.2 mph N/A   Mostly Cloudy
4:55 PM 74.5 °F 63.9 °F 69% 29.73 in 10.0 mi ESE 16.1 mph 21.9 mph N/A   Mostly Cloudy
5:15 PM 73.6 °F 63.7 °F 71% 29.72 in 10.0 mi ESE 16.1 mph 25.3 mph N/A   Mostly Cloudy
5:35 PM 72.7 °F 63.7 °F 73% 29.72 in 10.0 mi ESE 15.0 mph 24.2 mph N/A   Overcast
5:55 PM 72.5 °F 63.7 °F 74% 29.71 in 10.0 mi ESE 13.8 mph 24.2 mph N/A   Overcast
6:15 PM 71.8 °F 63.5 °F 75% 29.70 in 7.0 mi ESE 18.4 mph 24.2 mph N/A   Overcast
6:35 PM 71.6 °F 63.7 °F 76% 29.71 in 7.0 mi ESE 10.4 mph 23.0 mph N/A   Overcast
6:55 PM 70.9 °F 63.7 °F 78% 29.70 in 10.0 mi East 13.8 mph 20.7 mph N/A   Overcast
7:15 PM 70.7 °F 63.9 °F 79% 29.70 in 10.0 mi ESE 16.1 mph 25.3 mph N/A   Overcast
7:35 PM 70.7 °F 63.9 °F 79% 29.69 in 10.0 mi ESE 15.0 mph 24.2 mph N/A   Overcast
7:55 PM 70.2 °F 63.9 °F 80% 29.69 in 10.0 mi ESE 17.3 mph 25.3 mph N/A   Overcast
8:15 PM 70.0 °F 63.9 °F 81% 29.68 in 10.0 mi ESE 17.3 mph 26.5 mph N/A   Overcast
8:35 PM 70.2 °F 64.0 °F 81% 29.70 in 10.0 mi ESE 18.4 mph 29.9 mph N/A   Overcast
9:15 PM 69.8 °F 64.4 °F 83% 29.69 in 10.0 mi ESE 17.3 mph 23.0 mph N/A   Overcast
9:35 PM 69.8 °F 64.4 °F 83% 29.69 in 10.0 mi ESE 13.8 mph 21.9 mph N/A   Overcast
9:55 PM 69.8 °F 64.4 °F 83% 29.68 in 7.0 mi ESE 16.1 mph 21.9 mph N/A   Overcast
10:35 PM 70.0 °F 64.4 °F 82% 29.67 in 10.0 mi SE 12.7 mph 20.7 mph N/A   Overcast
10:55 PM 70.3 °F 64.4 °F 81% 29.66 in 7.0 mi SE 16.1 mph 25.3 mph N/A   Overcast
11:15 PM 70.7 °F 64.4 °F 80% 29.66 in 10.0 mi SE 16.1 mph 20.7 mph N/A Rain Rain
11:35 PM 70.7 °F 64.4 °F 80% 29.65 in 10.0 mi SE 15.0 mph 26.5 mph N/A Rain Rain
11:55 PM 70.7 °F 64.4 °F 80% 29.65 in 10.0 mi SE 18.4 mph 24.2 mph N/A   Overcast